Valemount, Canada
Current Conditions -  °F | °C
As of 10:00 AM on Thursday 30 Oct 2014 (Local Time) from CYWL Reporting Station
Broken Clouds Broken Clouds  
Wind Chill:   Ceiling: 10000
Heat Index:   Visibility: 15mi
Dew Point:   Wind: 22mph
Humidity: 71%   Direction: 110°ESE
Pressure: 29.87"   Gusts: 35mph
Location:  52.83°N, 119.25°W
Report Text: CYWL 301700Z 11019G30KT 15SM SCT040 BKN100 BKN220 07/02 A2987 RMK CU3AC2CI1 SLP136
Loading
Personal Weather Stations






























Interactive Weather Map
Tropical Storm Tracking
New forecast layout! Learn more

10-Day Weather Forecast

Advertisements
Track Severe Weather on mobile